Time;durP1;ratioP1;P1;durP2;ratioP2;P2;SDS_P1;SDS_P2;PMS_P1;PMS_P2;Temp;Humidity;BMP_temperature;BMP_pressure;BME280_temperature;BME280_humidity;BME280_pressure;Samples;Min_cycle;Max_cycle;Signal;HPM_P1;HPM_P2
2021/06/26 00:02:03;;;;;;;5.50;2.33;;;15.70;96.00;;;;;;5136534;27;20432;-68
2021/06/26 00:04:31;;;;;;;3.23;1.80;;;15.70;95.90;;;;;;5150978;27;20456;-68
2021/06/26 00:07:14;;;;;;;3.00;2.20;;;15.70;95.50;;;;;;5140824;27;20441;-68
2021/06/26 00:09:54;;;;;;;3.20;1.97;;;15.60;95.60;;;;;;5130273;28;20446;-70
2021/06/26 00:12:24;;;;;;;3.50;1.80;;;15.60;95.70;;;;;;5142615;27;20521;-68
2021/06/26 00:15:04;;;;;;;4.50;2.03;;;15.70;95.70;;;;;;5149644;27;20488;-68
2021/06/26 00:17:35;;;;;;;4.30;2.63;;;15.70;95.60;;;;;;5135420;27;20445;-67
2021/06/26 00:20:11;;;;;;;4.17;2.23;;;15.60;95.10;;;;;;5130024;28;20616;-68
2021/06/26 00:22:45;;;;;;;2.63;2.00;;;15.60;95.20;;;;;;5144814;27;20507;-68
2021/06/26 00:25:17;;;;;;;3.03;2.43;;;15.50;95.40;;;;;;5143093;27;20459;-68
2021/06/26 00:27:48;;;;;;;4.33;2.27;;;15.50;95.50;;;;;;5116609;27;20446;-67
2021/06/26 00:30:18;;;;;;;2.40;1.90;;;15.50;95.60;;;;;;5116234;28;20830;-68
2021/06/26 00:32:53;;;;;;;3.47;2.63;;;15.50;95.50;;;;;;5134612;27;20477;-68
2021/06/26 00:35:23;;;;;;;2.73;2.13;;;15.50;95.50;;;;;;5136274;27;20425;-68
2021/06/26 00:38:03;;;;;;;3.07;1.77;;;15.40;95.60;;;;;;5116042;27;20443;-67
2021/06/26 00:41:05;;;;;;;2.67;1.80;;;15.20;95.50;;;;;;5115455;28;20932;-68
2021/06/26 00:43:49;;;;;;;2.60;1.63;;;15.20;96.10;;;;;;5116277;28;20506;-67
2021/06/26 00:46:20;;;;;;;2.97;1.70;;;15.10;95.60;;;;;;5129070;27;20826;-67
2021/06/26 00:48:52;;;;;;;2.90;1.67;;;15.10;95.60;;;;;;5136500;27;20758;-68
2021/06/26 00:51:24;;;;;;;3.43;2.20;;;15.10;95.40;;;;;;5120301;27;20534;-68
2021/06/26 00:54:04;;;;;;;3.20;1.93;;;15.00;95.30;;;;;;5115376;28;20478;-68
2021/06/26 00:56:38;;;;;;;4.07;2.17;;;15.10;95.40;;;;;;5131077;27;20441;-68
2021/06/26 00:59:16;;;;;;;2.40;1.90;;;15.10;95.50;;;;;;5136491;27;20433;-68
2021/06/26 01:02:06;;;;;;;2.53;1.60;;;15.00;95.40;;;;;;5117680;27;20479;-69
2021/06/26 01:04:50;;;;;;;2.97;2.17;;;15.00;95.40;;;;;;5115396;27;20454;-71
2021/06/26 01:07:32;;;;;;;4.70;2.00;;;15.00;95.40;;;;;;5095077;28;20477;-69
2021/06/26 01:10:01;;;;;;;6.57;2.17;;;15.00;95.10;;;;;;5101286;27;20524;-68
2021/06/26 01:12:33;;;;;;;2.40;1.40;;;15.00;95.00;;;;;;5135820;27;20441;-68
2021/06/26 01:15:00;;;;;;;3.43;1.13;;;14.90;94.70;;;;;;5131913;27;21034;-68
2021/06/26 01:17:28;;;;;;;3.00;1.73;;;14.90;94.40;;;;;;5114964;28;20846;-69
2021/06/26 01:20:02;;;;;;;2.37;1.47;;;14.80;94.30;;;;;;5116713;27;20434;-69
2021/06/26 01:23:04;;;;;;;3.10;1.77;;;14.80;94.70;;;;;;5135490;27;20433;-68
2021/06/26 01:25:36;;;;;;;7.93;3.30;;;14.80;94.90;;;;;;5127944;27;20458;-68
2021/06/26 01:28:04;;;;;;;4.50;2.83;;;14.80;95.40;;;;;;5114869;28;20545;-68
2021/06/26 01:30:33;;;;;;;3.10;2.30;;;14.90;96.00;;;;;;5120761;27;20493;-68
2021/06/26 01:33:05;;;;;;;5.47;2.13;;;14.90;96.60;;;;;;5135807;27;20444;-68
2021/06/26 01:35:42;;;;;;;6.10;2.70;;;14.90;96.10;;;;;;5127824;27;20484;-67
2021/06/26 01:38:12;;;;;;;13.10;3.53;;;14.90;96.30;;;;;;5114287;28;20940;-68
2021/06/26 01:40:43;;;;;;;4.17;2.93;;;14.80;96.90;;;;;;5121295;27;20506;-68
2021/06/26 01:43:12;;;;;;;4.57;3.10;;;14.70;97.00;;;;;;5132657;27;20946;-69
2021/06/26 01:45:39;;;;;;;3.83;2.03;;;14.70;97.00;;;;;;5126691;27;20920;-69
2021/06/26 01:48:08;;;;;;;8.70;3.80;;;14.70;97.20;;;;;;5114053;28;20947;-68
2021/06/26 01:50:37;;;;;;;4.20;2.70;;;14.80;97.30;;;;;;5114935;27;20441;-70
2021/06/26 01:53:11;;;;;;;7.60;2.60;;;14.80;97.20;;;;;;5114843;28;20473;-69
2021/06/26 01:55:40;;;;;;;5.57;3.30;;;14.80;97.00;;;;;;5121435;27;20473;-70
2021/06/26 01:58:16;;;;;;;6.73;2.17;;;14.80;96.90;;;;;;5134618;27;20440;-70
2021/06/26 02:00:51;;;;;;;3.67;2.67;;;14.80;97.00;;;;;;5127022;27;20513;-69
2021/06/26 02:03:19;;;;;;;4.97;2.83;;;14.80;96.90;;;;;;5113960;28;20520;-69
2021/06/26 02:05:56;;;;;;;4.40;2.80;;;14.80;96.70;;;;;;5122797;27;20449;-70
2021/06/26 02:08:29;;;;;;;5.30;3.40;;;14.80;96.70;;;;;;5134959;27;20437;-69
2021/06/26 02:10:59;;;;;;;5.23;3.00;;;14.80;96.60;;;;;;5125733;27;20524;-69
2021/06/26 02:13:26;;;;;;;3.57;2.33;;;14.80;96.90;;;;;;5113608;28;20539;-69
2021/06/26 02:15:59;;;;;;;4.80;2.87;;;14.80;96.80;;;;;;5118290;27;20430;-67
2021/06/26 02:18:27;;;;;;;11.20;3.43;;;14.80;96.80;;;;;;5120152;27;20434;-68
2021/06/26 02:20:59;;;;;;;6.43;4.43;;;14.80;96.90;;;;;;5121357;27;20931;-69
2021/06/26 02:23:27;;;;;;;13.63;4.87;;;14.80;97.30;;;;;;5134399;27;20448;-68
2021/06/26 02:25:54;;;;;;;16.13;5.27;;;14.80;97.50;;;;;;5125309;27;20533;-69
2021/06/26 02:28:23;;;;;;;9.57;3.63;;;14.80;97.60;;;;;;5113703;28;20444;-68
2021/06/26 02:30:50;;;;;;;13.93;3.60;;;14.70;97.90;;;;;;5119708;27;20498;-68
2021/06/26 02:33:17;;;;;;;15.20;2.93;;;14.60;98.00;;;;;;5134004;27;20434;-68
2021/06/26 02:35:49;;;;;;;14.10;3.07;;;14.50;98.60;;;;;;5127919;27;20482;-68
2021/06/26 02:38:21;;;;;;;11.70;3.50;;;14.50;99.20;;;;;;5127236;27;20433;-69
2021/06/26 02:40:53;;;;;;;5.53;3.70;;;14.50;99.30;;;;;;5115451;27;20437;-69
2021/06/26 02:43:31;;;;;;;3.20;2.27;;;14.50;99.90;;;;;;5113893;28;20438;-69
2021/06/26 02:45:58;;;;;;;4.73;3.00;;;14.50;99.90;;;;;;5132729;27;20779;-70
2021/06/26 02:48:26;;;;;;;4.27;2.80;;;14.60;99.80;;;;;;5119292;27;20456;-70
2021/06/26 02:50:53;;;;;;;3.10;2.47;;;14.70;99.70;;;;;;5112941;28;20480;-69
2021/06/26 02:53:26;;;;;;;10.27;3.20;;;14.70;99.10;;;;;;5125223;27;20433;-69
2021/06/26 02:55:56;;;;;;;7.67;2.93;;;14.80;99.00;;;;;;5133431;27;20519;-69
2021/06/26 02:58:26;;;;;;;3.73;2.90;;;14.80;98.90;;;;;;5119606;27;20938;-69
2021/06/26 03:00:53;;;;;;;11.63;2.87;;;14.90;98.40;;;;;;5113380;27;20453;-69
2021/06/26 03:03:20;;;;;;;23.43;3.33;;;14.90;98.30;;;;;;5133317;27;20445;-69
2021/06/26 03:05:52;;;;;;;10.87;3.70;;;14.90;97.90;;;;;;5133561;27;20429;-69
2021/06/26 03:08:33;;;;;;;5.23;3.33;;;14.90;98.10;;;;;;5118190;27;20502;-70
2021/06/26 03:11:06;;;;;;;6.07;3.40;;;14.90;98.50;;;;;;5132928;27;20437;-70
2021/06/26 03:13:46;;;;;;;7.60;3.97;;;14.90;98.60;;;;;;5092965;28;20462;-72
2021/06/26 03:16:13;;;;;;;18.50;3.87;;;14.90;98.60;;;;;;5096375;28;20434;-69
2021/06/26 03:18:44;;;;;;;5.17;2.70;;;14.90;98.20;;;;;;5112460;28;20438;-69
2021/06/26 03:21:17;;;;;;;11.77;3.30;;;14.80;98.50;;;;;;5112908;28;20430;-69
2021/06/26 03:23:46;;;;;;;12.40;2.87;;;14.80;98.60;;;;;;5132638;28;20429;-69
2021/06/26 03:26:16;;;;;;;11.43;2.53;;;14.80;97.70;;;;;;5132552;28;20475;-70
2021/06/26 03:28:45;;;;;;;4.30;1.90;;;14.70;98.10;;;;;;5112698;28;20469;-69
2021/06/26 03:31:12;;;;;;;5.13;2.40;;;14.60;97.90;;;;;;5116579;28;20767;-72
2021/06/26 03:33:46;;;;;;;3.60;2.10;;;14.50;98.20;;;;;;5131183;28;20945;-68
2021/06/26 03:36:21;;;;;;;3.00;1.80;;;14.50;98.50;;;;;;5129125;28;20476;-69
2021/06/26 03:38:48;;;;;;;3.50;2.20;;;14.50;98.30;;;;;;5112438;28;20924;-69
2021/06/26 03:41:25;;;;;;;4.23;2.23;;;14.60;98.00;;;;;;5113477;28;20432;-69
2021/06/26 03:43:58;;;;;;;4.23;3.10;;;14.50;97.40;;;;;;5112865;28;20453;-69
2021/06/26 03:46:25;;;;;;;6.20;2.57;;;14.40;97.40;;;;;;5117010;28;20465;-70
2021/06/26 03:48:53;;;;;;;3.70;2.77;;;14.30;97.90;;;;;;5132865;28;20440;-69
2021/06/26 03:51:27;;;;;;;3.80;2.33;;;14.30;98.00;;;;;;5129071;28;20916;-70
2021/06/26 03:53:55;;;;;;;3.60;2.40;;;14.30;98.20;;;;;;5112510;28;20498;-69
2021/06/26 03:56:23;;;;;;;3.53;1.83;;;14.30;98.20;;;;;;5115887;28;20425;-69
2021/06/26 03:58:50;;;;;;;3.80;2.67;;;14.40;97.50;;;;;;5132882;27;20450;-69
2021/06/26 04:01:19;;;;;;;4.00;2.60;;;14.40;97.80;;;;;;5134067;27;20871;-69
2021/06/26 04:03:46;;;;;;;10.53;3.00;;;14.40;98.00;;;;;;5136719;27;20429;-70
2021/06/26 04:06:14;;;;;;;7.03;4.20;;;14.40;97.90;;;;;;5133739;27;20427;-69
2021/06/26 04:08:41;;;;;;;6.10;5.20;;;14.30;98.10;;;;;;5116434;28;20983;-69
2021/06/26 04:11:08;;;;;;;4.23;2.97;;;14.30;98.50;;;;;;5116895;27;20434;-70
2021/06/26 04:13:35;;;;;;;3.03;2.73;;;14.30;98.90;;;;;;5116234;28;20450;-70
2021/06/26 04:16:04;;;;;;;2.77;1.97;;;14.40;99.00;;;;;;5116737;27;20490;-69
2021/06/26 04:18:33;;;;;;;3.77;2.13;;;14.50;98.70;;;;;;5136819;27;20448;-70
2021/06/26 04:21:00;;;;;;;4.60;2.03;;;14.60;98.20;;;;;;5136423;27;20437;-71
2021/06/26 04:23:28;;;;;;;4.00;2.67;;;14.60;98.00;;;;;;5116019;27;20861;-69
2021/06/26 04:25:55;;;;;;;3.03;2.40;;;14.60;98.00;;;;;;5116032;28;20441;-69
2021/06/26 04:28:22;;;;;;;4.03;2.60;;;14.60;97.70;;;;;;5135751;27;20449;-69
2021/06/26 04:30:55;;;;;;;2.70;2.23;;;14.60;97.80;;;;;;5136285;27;20441;-69
2021/06/26 04:33:27;;;;;;;3.53;2.60;;;14.60;98.00;;;;;;5116852;27;20441;-69
2021/06/26 04:35:55;;;;;;;2.90;2.30;;;14.60;98.00;;;;;;5115871;28;20481;-69
2021/06/26 04:38:28;;;;;;;4.00;2.10;;;14.70;98.20;;;;;;5131876;27;20438;-69
2021/06/26 04:40:56;;;;;;;3.00;2.10;;;14.70;97.60;;;;;;5116054;27;20438;-70
2021/06/26 04:43:23;;;;;;;3.83;2.40;;;14.70;97.40;;;;;;5115743;28;20524;-71
2021/06/26 04:45:52;;;;;;;4.00;2.53;;;14.70;97.70;;;;;;5115647;28;20438;-69
2021/06/26 04:48:20;;;;;;;3.00;2.03;;;14.80;98.30;;;;;;5135731;27;20931;-69
2021/06/26 04:50:48;;;;;;;2.80;1.93;;;14.80;98.40;;;;;;5132382;27;20940;-69
2021/06/26 04:53:18;;;;;;;4.13;2.60;;;15.00;98.20;;;;;;5116205;27;20466;-69
2021/06/26 04:55:53;;;;;;;3.10;2.43;;;15.10;98.20;;;;;;5117069;27;20481;-69
2021/06/26 04:58:20;;;;;;;3.07;2.20;;;15.20;98.30;;;;;;5136149;27;20839;-70
2021/06/26 05:00:50;;;;;;;3.07;2.10;;;15.40;97.90;;;;;;5133359;27;20533;-69
2021/06/26 05:03:23;;;;;;;4.03;2.63;;;15.40;97.30;;;;;;5116233;27;20920;-69
2021/06/26 05:05:51;;;;;;;3.10;2.27;;;15.50;97.50;;;;;;5115270;28;20430;-69
2021/06/26 05:08:21;;;;;;;3.70;2.00;;;15.60;97.70;;;;;;5115642;27;20438;-69
2021/06/26 05:10:49;;;;;;;4.73;2.43;;;15.70;97.60;;;;;;5135498;27;20930;-69
2021/06/26 05:13:16;;;;;;;5.70;2.60;;;15.90;97.80;;;;;;5135092;27;20465;-70
2021/06/26 05:15:46;;;;;;;2.63;2.00;;;16.00;96.90;;;;;;5107465;27;20545;-69
2021/06/26 05:18:15;;;;;;;3.30;2.67;;;16.00;96.70;;;;;;5135391;27;20935;-69
2021/06/26 05:20:53;;;;;;;2.30;1.90;;;16.10;96.80;;;;;;5115270;28;20525;-69
2021/06/26 05:23:22;;;;;;;3.40;2.27;;;16.20;96.80;;;;;;5114846;28;20448;-69
2021/06/26 05:25:54;;;;;;;3.10;2.57;;;16.30;96.30;;;;;;5115761;27;20429;-69
2021/06/26 05:28:23;;;;;;;2.67;2.10;;;16.40;96.00;;;;;;5111369;28;20989;-70
2021/06/26 05:30:51;;;;;;;3.23;2.50;;;16.50;95.90;;;;;;5122054;27;20446;-70
2021/06/26 05:33:25;;;;;;;2.70;2.17;;;16.50;95.50;;;;;;5120942;27;20426;-69
2021/06/26 05:35:53;;;;;;;4.23;2.73;;;16.60;95.70;;;;;;5125321;27;20512;-69
2021/06/26 05:38:22;;;;;;;2.70;2.13;;;16.60;95.40;;;;;;5120661;27;20475;-70
2021/06/26 05:40:49;;;;;;;4.00;3.13;;;16.70;95.60;;;;;;5123734;27;20498;-69
2021/06/26 05:43:18;;;;;;;4.70;3.20;;;16.80;95.80;;;;;;5122643;27;20826;-69
2021/06/26 05:45:45;;;;;;;6.77;3.70;;;16.90;95.30;;;;;;5122848;27;20444;-69
2021/06/26 05:48:15;;;;;;;3.97;2.60;;;16.90;94.80;;;;;;5123801;27;20441;-69
2021/06/26 05:50:42;;;;;;;2.63;1.93;;;16.90;94.80;;;;;;5122770;27;20490;-70
2021/06/26 05:53:09;;;;;;;3.73;2.07;;;17.00;94.50;;;;;;5121610;27;20838;-69
2021/06/26 05:55:41;;;;;;;2.93;1.80;;;17.00;94.70;;;;;;5122828;27;20573;-70
2021/06/26 05:58:10;;;;;;;2.50;2.00;;;17.10;95.20;;;;;;5124987;27;20474;-69
2021/06/26 06:00:37;;;;;;;3.30;1.60;;;17.20;94.90;;;;;;5123135;27;20441;-69
2021/06/26 06:03:06;;;;;;;3.57;2.60;;;17.20;95.40;;;;;;5123444;27;20439;-70
2021/06/26 06:05:38;;;;;;;2.60;1.93;;;17.40;95.50;;;;;;5124635;27;20926;-70
2021/06/26 06:08:05;;;;;;;3.10;2.20;;;17.70;95.90;;;;;;5121417;27;20437;-69
2021/06/26 06:10:33;;;;;;;2.63;2.20;;;17.90;95.80;;;;;;5122247;27;20452;-69
2021/06/26 06:13:01;;;;;;;4.53;2.30;;;18.10;95.30;;;;;;5122162;27;20818;-71
2021/06/26 06:15:30;;;;;;;3.67;2.43;;;18.20;94.90;;;;;;5117766;27;21345;-70
2021/06/26 06:17:57;;;;;;;3.70;2.93;;;18.40;94.90;;;;;;5119305;27;20533;-70
2021/06/26 06:20:25;;;;;;;4.63;2.70;;;18.50;94.40;;;;;;5120460;27;20446;-70
2021/06/26 06:22:54;;;;;;;4.90;3.87;;;18.60;94.20;;;;;;5123120;27;20464;-69
2021/06/26 06:25:21;;;;;;;3.93;2.90;;;18.70;94.40;;;;;;5116894;27;20487;-70
2021/06/26 06:27:48;;;;;;;3.40;2.33;;;18.90;94.30;;;;;;5112474;27;20804;-69
2021/06/26 06:30:17;;;;;;;3.20;2.87;;;19.10;93.60;;;;;;5120287;27;20445;-69
2021/06/26 06:32:48;;;;;;;2.63;2.20;;;19.20;92.80;;;;;;5121233;27;20445;-69
2021/06/26 06:35:15;;;;;;;2.50;2.00;;;19.40;92.60;;;;;;5122920;27;20470;-69
2021/06/26 06:37:42;;;;;;;2.93;2.50;;;19.60;93.20;;;;;;5121740;27;20439;-78
2021/06/26 06:40:11;;;;;;;3.10;2.63;;;19.90;93.40;;;;;;5110881;27;20464;-71
2021/06/26 06:42:41;;;;;;;3.23;2.40;;;20.10;92.50;;;;;;5110501;28;20449;-69
2021/06/26 06:45:10;;;;;;;2.93;2.33;;;20.40;91.70;;;;;;5116143;27;20446;-70
2021/06/26 06:47:39;;;;;;;3.27;2.50;;;20.50;90.60;;;;;;5114433;27;20831;-69
2021/06/26 06:50:08;;;;;;;3.77;2.73;;;20.60;90.50;;;;;;5109470;27;20437;-69
2021/06/26 06:52:35;;;;;;;4.83;2.87;;;20.70;90.50;;;;;;5116966;27;20479;-69
2021/06/26 06:55:02;;;;;;;3.80;2.83;;;20.70;90.20;;;;;;5113207;27;20450;-70
2021/06/26 06:57:31;;;;;;;3.20;2.20;;;20.70;89.30;;;;;;5118738;27;20490;-71
2021/06/26 07:00:00;;;;;;;3.87;3.00;;;20.60;88.40;;;;;;5118509;27;21461;-70
2021/06/26 07:02:27;;;;;;;3.17;2.60;;;20.50;88.60;;;;;;5114648;27;20440;-70
2021/06/26 07:04:56;;;;;;;8.93;5.77;;;20.40;88.60;;;;;;5117484;28;20442;-70
2021/06/26 07:07:23;;;;;;;4.70;4.10;;;20.30;88.90;;;;;;5118427;27;20446;-70
2021/06/26 07:09:50;;;;;;;3.50;2.90;;;20.20;89.60;;;;;;5115599;27;20442;-70
2021/06/26 07:12:19;;;;;;;3.33;2.97;;;20.10;90.50;;;;;;5115613;28;20443;-70
2021/06/26 07:14:46;;;;;;;2.97;2.57;;;20.00;90.70;;;;;;5115338;28;20519;-70
2021/06/26 07:17:14;;;;;;;3.70;3.00;;;20.00;90.90;;;;;;5114867;28;20493;-69
2021/06/26 07:19:41;;;;;;;3.47;3.00;;;19.90;91.30;;;;;;5116638;28;20434;-70
2021/06/26 07:22:22;;;;;;;3.53;2.80;;;20.00;91.70;;;;;;5113936;28;20805;-72
2021/06/26 07:24:54;;;;;;;4.00;2.93;;;20.00;91.80;;;;;;5113999;28;20426;-69
2021/06/26 07:27:25;;;;;;;4.10;3.33;;;20.00;91.70;;;;;;5114079;28;20836;-69
2021/06/26 07:29:53;;;;;;;6.00;3.60;;;20.00;91.90;;;;;;5116515;28;20441;-69
2021/06/26 07:32:21;;;;;;;5.20;3.10;;;20.20;92.40;;;;;;5116122;28;20453;-70
2021/06/26 07:34:51;;;;;;;4.10;3.50;;;20.30;92.60;;;;;;5116118;28;20461;-72
2021/06/26 07:37:19;;;;;;;3.87;3.10;;;20.40;92.40;;;;;;5116970;27;20485;-70
2021/06/26 07:39:49;;;;;;;5.13;3.07;;;20.40;91.80;;;;;;5120734;27;20868;-69
2021/06/26 07:42:16;;;;;;;3.70;2.77;;;20.50;91.80;;;;;;5120814;27;20449;-71
2021/06/26 07:44:45;;;;;;;3.20;2.73;;;20.60;91.90;;;;;;5120810;27;20441;-71
2021/06/26 07:47:17;;;;;;;4.30;3.60;;;20.70;92.10;;;;;;5121111;27;20919;-69
2021/06/26 07:49:44;;;;;;;3.20;2.43;;;20.80;92.20;;;;;;5119373;27;20461;-70
2021/06/26 07:52:13;;;;;;;3.20;2.50;;;20.90;91.60;;;;;;5119149;27;20919;-71
2021/06/26 07:54:42;;;;;;;2.80;2.20;;;21.00;91.50;;;;;;5118778;27;20980;-71
2021/06/26 07:57:09;;;;;;;4.37;2.30;;;21.10;90.90;;;;;;5119711;27;20531;-70
2021/06/26 07:59:36;;;;;;;2.77;1.97;;;21.20;91.40;;;;;;5118724;27;20433;-70
2021/06/26 08:02:05;;;;;;;2.37;1.63;;;21.30;90.70;;;;;;5121063;27;20449;-70
2021/06/26 08:04:32;;;;;;;3.03;1.67;;;21.50;87.40;;;;;;5122145;27;20834;-70
2021/06/26 08:07:00;;;;;;;3.23;1.97;;;21.60;87.90;;;;;;5122079;27;20938;-70
2021/06/26 08:09:27;;;;;;;3.93;2.10;;;21.80;88.10;;;;;;5126070;27;20482;-70
2021/06/26 08:11:56;;;;;;;2.90;1.87;;;22.00;87.30;;;;;;5122356;27;20437;-70
2021/06/26 08:14:23;;;;;;;2.67;1.83;;;22.10;84.60;;;;;;5126015;27;20470;-70
2021/06/26 08:16:50;;;;;;;2.80;2.00;;;22.20;81.00;;;;;;5124869;27;20485;-69
2021/06/26 08:19:28;;;;;;;4.63;2.83;;;22.30;81.30;;;;;;5122499;27;20434;-71
2021/06/26 08:21:55;;;;;;;3.20;2.00;;;22.40;83.60;;;;;;5122767;27;20437;-70
2021/06/26 08:24:23;;;;;;;3.90;2.13;;;22.40;80.90;;;;;;5126824;27;20437;-70
2021/06/26 08:26:50;;;;;;;2.67;1.90;;;22.60;79.80;;;;;;5120429;27;20798;-70
2021/06/26 08:29:18;;;;;;;2.67;1.30;;;22.70;79.80;;;;;;5114954;27;20522;-70
2021/06/26 08:31:45;;;;;;;2.40;1.50;;;22.70;78.80;;;;;;5123242;27;20536;-70
2021/06/26 08:34:16;;;;;;;2.37;1.83;;;22.70;76.40;;;;;;5123733;27;20538;-70
2021/06/26 08:36:44;;;;;;;2.53;1.67;;;22.70;78.40;;;;;;5124364;27;20556;-70
2021/06/26 08:39:11;;;;;;;2.80;1.70;;;22.80;77.50;;;;;;5122634;27;20474;-70
2021/06/26 08:41:45;;;;;;;2.70;1.67;;;22.80;75.80;;;;;;5125759;27;20532;-71
2021/06/26 08:44:13;;;;;;;2.30;1.77;;;22.90;75.60;;;;;;5123426;27;20499;-69
2021/06/26 08:46:44;;;;;;;2.53;1.83;;;22.90;72.60;;;;;;5125578;27;20441;-71
2021/06/26 08:49:11;;;;;;;2.77;1.70;;;23.00;73.90;;;;;;5112872;27;21022;-71
2021/06/26 08:51:39;;;;;;;2.50;1.47;;;23.10;74.90;;;;;;5119344;27;20442;-69
2021/06/26 08:54:13;;;;;;;2.30;1.63;;;23.20;73.70;;;;;;5116658;27;20442;-70
2021/06/26 08:56:42;;;;;;;2.83;1.80;;;23.30;70.20;;;;;;5114899;27;20501;-70
2021/06/26 08:59:09;;;;;;;2.90;1.80;;;23.30;72.60;;;;;;5114107;28;20430;-70
2021/06/26 09:01:37;;;;;;;2.33;1.70;;;23.40;71.80;;;;;;5117359;27;20438;-70
2021/06/26 09:04:07;;;;;;;2.63;1.73;;;23.50;70.50;;;;;;5113530;28;20943;-70
2021/06/26 09:06:47;;;;;;;2.50;1.60;;;23.50;70.00;;;;;;5110637;27;20478;-72
2021/06/26 09:09:16;;;;;;;3.37;1.93;;;23.50;71.20;;;;;;5113144;28;20823;-71
2021/06/26 09:11:48;;;;;;;3.77;1.90;;;23.70;68.10;;;;;;5112713;27;20762;-70
2021/06/26 09:14:21;;;;;;;5.03;1.70;;;23.70;67.20;;;;;;5113478;28;20474;-71
2021/06/26 09:16:54;;;;;;;2.40;1.73;;;23.80;68.80;;;;;;5115491;27;20473;-70
2021/06/26 09:19:23;;;;;;;3.33;1.87;;;23.90;68.20;;;;;;5112738;28;20465;-70
2021/06/26 09:22:01;;;;;;;3.03;1.70;;;23.90;67.50;;;;;;5116785;27;20518;-70
2021/06/26 09:24:38;;;;;;;2.83;1.87;;;24.00;68.10;;;;;;5113349;27;20943;-70
2021/06/26 09:27:05;;;;;;;2.67;1.97;;;24.10;66.70;;;;;;5113266;28;20492;-72
2021/06/26 09:29:33;;;;;;;2.60;1.80;;;24.10;69.70;;;;;;5107529;28;20435;-70
2021/06/26 09:32:01;;;;;;;2.90;2.00;;;24.30;70.90;;;;;;5116222;27;20439;-70
2021/06/26 09:34:41;;;;;;;3.50;1.83;;;24.50;71.10;;;;;;5112926;28;20785;-70
2021/06/26 09:37:11;;;;;;;2.10;1.43;;;24.60;71.10;;;;;;5114553;28;20488;-69
2021/06/26 09:39:39;;;;;;;2.43;1.90;;;24.70;69.40;;;;;;5128732;27;20430;-70
2021/06/26 09:42:19;;;;;;;2.70;1.93;;;24.70;68.30;;;;;;5133544;27;20434;-71
2021/06/26 09:44:52;;;;;;;3.60;1.93;;;24.90;68.40;;;;;;5133001;27;20469;-70
2021/06/26 09:47:33;;;;;;;3.07;1.90;;;25.00;68.40;;;;;;5125099;27;20491;-69
2021/06/26 09:50:13;;;;;;;2.40;1.70;;;25.10;61.10;;;;;;5120234;27;20522;-71
2021/06/26 09:52:41;;;;;;;3.30;1.63;;;25.20;62.00;;;;;;5121775;27;20905;-70
2021/06/26 09:55:17;;;;;;;3.40;2.00;;;25.20;63.20;;;;;;5119877;27;20438;-70
2021/06/26 09:57:45;;;;;;;2.97;1.57;;;25.30;61.70;;;;;;5118944;27;20556;-70
2021/06/26 10:00:16;;;;;;;2.23;1.57;;;25.40;62.00;;;;;;5120329;27;20434;-70
2021/06/26 10:02:44;;;;;;;2.43;1.63;;;25.60;64.40;;;;;;5108741;27;20451;-69
2021/06/26 10:05:14;;;;;;;4.40;1.90;;;25.80;61.20;;;;;;5113334;28;20436;-69
2021/06/26 10:07:47;;;;;;;2.40;1.57;;;25.90;62.20;;;;;;5116832;27;20998;-70
2021/06/26 10:10:15;;;;;;;7.30;1.93;;;26.00;61.10;;;;;;5111733;27;20801;-71
2021/06/26 10:12:43;;;;;;;2.30;1.50;;;26.00;59.60;;;;;;5113252;27;20441;-70
2021/06/26 10:15:12;;;;;;;2.50;1.67;;;26.10;60.50;;;;;;5117022;27;20983;-69
2021/06/26 10:17:40;;;;;;;2.40;2.00;;;26.20;56.90;;;;;;5120701;27;20492;-69
2021/06/26 10:20:10;;;;;;;2.83;2.13;;;26.20;57.70;;;;;;5122641;27;20501;-70
2021/06/26 10:22:42;;;;;;;2.43;1.80;;;26.40;59.40;;;;;;5120654;27;20527;-71
2021/06/26 10:25:15;;;;;;;3.33;1.60;;;26.50;59.20;;;;;;5107373;27;20798;-72
2021/06/26 10:27:44;;;;;;;3.10;1.50;;;26.70;57.40;;;;;;5119834;27;20511;-70
2021/06/26 10:30:16;;;;;;;2.83;1.77;;;26.70;55.90;;;;;;5122225;27;20468;-71
2021/06/26 10:32:54;;;;;;;2.33;1.50;;;26.70;57.30;;;;;;5121837;27;20451;-70
2021/06/26 10:35:22;;;;;;;2.93;1.53;;;26.70;57.30;;;;;;5119409;27;20512;-70
2021/06/26 10:38:06;;;;;;;2.70;1.70;;;26.80;57.70;;;;;;5119865;27;20580;-70
2021/06/26 10:40:42;;;;;;;3.00;2.00;;;27.00;58.70;;;;;;5115918;27;20438;-70
2021/06/26 10:43:24;;;;;;;3.53;2.00;;;27.00;55.40;;;;;;5122309;27;20978;-73
2021/06/26 10:45:53;;;;;;;2.93;1.80;;;27.00;56.00;;;;;;5117769;27;20484;-70
2021/06/26 10:48:23;;;;;;;3.87;1.90;;;27.10;57.10;;;;;;5123233;27;20525;-75
2021/06/26 10:50:52;;;;;;;2.40;1.63;;;27.10;54.90;;;;;;5117631;27;20438;-70
2021/06/26 10:53:32;;;;;;;2.50;1.80;;;27.10;55.30;;;;;;5122688;27;20516;-69
2021/06/26 10:56:03;;;;;;;4.03;1.70;;;27.20;54.00;;;;;;5122566;27;20467;-70
2021/06/26 10:58:32;;;;;;;4.50;2.20;;;27.40;55.10;;;;;;5118708;27;20517;-69
2021/06/26 11:00:59;;;;;;;2.50;1.67;;;27.60;55.40;;;;;;5119967;27;20832;-69
2021/06/26 11:03:31;;;;;;;2.40;1.50;;;27.80;54.70;;;;;;5122003;27;20470;-70
2021/06/26 11:06:00;;;;;;;2.70;2.00;;;27.90;52.30;;;;;;5121841;27;20442;-69
2021/06/26 11:08:27;;;;;;;3.10;2.03;;;27.90;49.40;;;;;;5122162;27;20465;-70
2021/06/26 11:11:02;;;;;;;2.53;1.70;;;27.70;50.80;;;;;;5119323;27;20528;-70
2021/06/26 11:13:31;;;;;;;2.83;1.73;;;27.60;52.50;;;;;;5121275;27;20545;-70
2021/06/26 11:16:04;;;;;;;2.17;1.53;;;27.50;53.50;;;;;;5120318;28;20453;-70
2021/06/26 11:18:31;;;;;;;2.10;1.37;;;27.50;55.00;;;;;;5120796;28;20513;-70
2021/06/26 11:21:02;;;;;;;2.07;1.20;;;27.60;55.10;;;;;;5122851;28;20470;-70
2021/06/26 11:23:28;;;;;;;2.40;1.60;;;27.70;55.70;;;;;;5122294;28;20508;-70
2021/06/26 11:26:03;;;;;;;2.47;1.97;;;27.90;54.60;;;;;;5122023;28;20553;-70
2021/06/26 11:28:30;;;;;;;3.50;2.87;;;27.90;52.10;;;;;;5121511;28;20517;-70
2021/06/26 11:31:04;;;;;;;3.10;1.60;;;27.90;52.60;;;;;;5112939;28;20430;-69
2021/06/26 11:33:31;;;;;;;2.40;1.67;;;27.70;52.20;;;;;;5117633;28;20447;-69
2021/06/26 11:35:58;;;;;;;2.30;1.37;;;27.70;52.30;;;;;;5112766;28;20484;-70
2021/06/26 11:38:26;;;;;;;2.30;1.53;;;27.70;52.60;;;;;;5116364;28;20526;-70
2021/06/26 11:41:03;;;;;;;2.67;1.70;;;27.80;52.20;;;;;;5117658;28;20524;-69
2021/06/26 11:43:32;;;;;;;2.33;1.70;;;28.00;53.10;;;;;;5112023;28;20805;-70
2021/06/26 11:46:00;;;;;;;2.60;1.90;;;28.10;52.40;;;;;;5110270;28;20489;-69
2021/06/26 11:48:27;;;;;;;2.60;1.77;;;28.10;51.30;;;;;;5108479;28;20486;-70
2021/06/26 11:50:55;;;;;;;2.63;1.73;;;28.10;49.70;;;;;;5110133;28;20469;-69
2021/06/26 11:53:25;;;;;;;2.40;1.70;;;28.10;53.10;;;;;;5107511;28;20478;-69
2021/06/26 11:55:58;;;;;;;8.33;1.90;;;28.30;53.10;;;;;;5111996;28;20451;-70
2021/06/26 11:58:43;;;;;;;2.50;1.70;;;28.50;53.30;;;;;;5115820;28;20540;-71
2021/06/26 12:01:13;;;;;;;3.20;1.90;;;28.80;49.80;;;;;;5111125;28;20453;-70
2021/06/26 12:03:40;;;;;;;3.43;1.70;;;28.80;49.20;;;;;;5109356;28;20539;-70
2021/06/26 12:06:09;;;;;;;2.20;1.60;;;28.70;49.40;;;;;;5114592;28;20533;-70
2021/06/26 12:08:42;;;;;;;3.50;1.60;;;28.80;50.50;;;;;;5117845;28;20445;-70
2021/06/26 12:11:12;;;;;;;2.30;1.83;;;28.80;49.40;;;;;;5115015;28;20481;-70
2021/06/26 12:13:42;;;;;;;2.40;1.53;;;28.90;45.50;;;;;;5117721;28;20462;-72
2021/06/26 12:16:20;;;;;;;3.10;1.50;;;28.90;47.30;;;;;;5112245;28;20478;-70
2021/06/26 12:18:48;;;;;;;2.60;1.80;;;29.00;49.90;;;;;;5115486;28;20568;-70
2021/06/26 12:21:20;;;;;;;4.77;1.40;;;29.00;47.80;;;;;;5118439;27;20856;-70
2021/06/26 12:23:49;;;;;;;2.40;1.90;;;28.90;49.40;;;;;;5121500;27;20475;-71
2021/06/26 12:26:17;;;;;;;3.50;1.40;;;28.90;49.50;;;;;;5119949;27;20433;-70
2021/06/26 12:28:46;;;;;;;2.57;1.70;;;28.90;48.80;;;;;;5122104;27;20502;-70
2021/06/26 12:31:13;;;;;;;2.50;1.50;;;28.90;48.80;;;;;;5119777;27;20439;-70
2021/06/26 12:33:40;;;;;;;2.60;2.00;;;29.00;47.70;;;;;;5117931;27;20526;-70
2021/06/26 12:36:15;;;;;;;3.43;2.13;;;29.10;48.20;;;;;;5114106;27;20452;-71
2021/06/26 12:38:45;;;;;;;2.43;1.80;;;29.00;45.90;;;;;;5114010;27;20905;-70
2021/06/26 12:41:20;;;;;;;2.40;1.70;;;29.00;46.10;;;;;;5119030;27;20444;-69
2021/06/26 12:43:48;;;;;;;2.57;1.80;;;28.90;44.60;;;;;;5121094;27;20460;-70
2021/06/26 12:46:21;;;;;;;2.40;2.00;;;28.80;45.70;;;;;;5118644;27;20936;-69
2021/06/26 12:48:49;;;;;;;2.73;1.60;;;28.70;45.60;;;;;;5116397;27;20507;-70
2021/06/26 12:51:18;;;;;;;2.10;1.60;;;28.50;47.90;;;;;;5118124;27;20432;-70
2021/06/26 12:53:49;;;;;;;3.23;2.10;;;28.40;47.20;;;;;;5115339;27;20446;-70
2021/06/26 12:56:19;;;;;;;2.80;2.20;;;28.50;48.20;;;;;;5120548;27;20447;-69
2021/06/26 12:58:58;;;;;;;2.70;2.10;;;28.50;47.40;;;;;;5118446;27;20536;-70
2021/06/26 13:01:39;;;;;;;2.80;2.00;;;28.60;47.20;;;;;;5117961;27;20439;-70
2021/06/26 13:04:09;;;;;;;2.43;1.77;;;28.80;48.70;;;;;;5120039;27;20453;-70